Time;durP1;ratioP1;P1;durP2;ratioP2;P2;SDS_P1;SDS_P2;PMS_P1;PMS_P2;Temp;Humidity;BMP_temperature;BMP_pressure;BME280_temperature;BME280_humidity;BME280_pressure;Samples;Min_cycle;Max_cycle;Signal;HPM_P1;HPM_P2
2022/01/16 00:00:50;;;;;;;74.30;27.60;;;2.00;99.90;;;;;;6154768;23;20100;-81
2022/01/16 00:06:05;;;;;;;64.00;26.85;;;2.70;99.90;;;;;;6178917;23;20019;-81
2022/01/16 00:08:31;;;;;;;70.93;27.67;;;2.00;99.90;;;;;;6179870;23;20095;-82
2022/01/16 00:10:59;;;;;;;70.97;27.08;;;1.90;99.90;;;;;;6154574;23;20056;-82
2022/01/16 00:13:25;;;;;;;68.65;25.65;;;1.90;99.90;;;;;;6180187;23;20049;-81
2022/01/16 00:15:51;;;;;;;72.70;27.27;;;2.50;99.90;;;;;;6180000;23;20009;-82
2022/01/16 00:18:22;;;;;;;72.65;26.92;;;1.90;99.90;;;;;;6154650;23;20013;-80
2022/01/16 00:20:49;;;;;;;66.07;25.33;;;2.00;99.90;;;;;;6154623;23;20017;-81
2022/01/16 00:23:23;;;;;;;54.90;22.63;;;1.90;99.90;;;;;;6178899;23;20077;-80
2022/01/16 00:25:51;;;;;;;68.65;27.73;;;1.80;99.90;;;;;;6152592;23;20039;-80
2022/01/16 00:28:16;;;;;;;64.40;25.90;;;1.80;99.90;;;;;;6177869;23;20111;-82
2022/01/16 00:30:42;;;;;;;70.60;28.17;;;1.80;99.90;;;;;;6177718;23;20025;-82
2022/01/16 00:33:08;;;;;;;73.43;27.70;;;1.80;99.90;;;;;;6154139;23;20287;-81
2022/01/16 00:35:33;;;;;;;68.20;27.50;;;1.80;99.90;;;;;;6179183;23;20020;-80
2022/01/16 00:37:59;;;;;;;69.40;27.63;;;1.70;99.90;;;;;;6154495;23;20040;-80
2022/01/16 00:40:25;;;;;;;74.75;29.00;;;1.80;99.90;;;;;;6180890;23;20019;-80
2022/01/16 00:42:51;;;;;;;74.32;28.00;;;1.80;99.90;;;;;;6181729;23;20021;-79
2022/01/16 00:45:17;;;;;;;71.70;29.25;;;1.80;99.90;;;;;;6181990;23;20267;-81
2022/01/16 00:47:42;;;;;;;69.55;28.58;;;1.80;99.90;;;;;;6181714;23;20031;-82
2022/01/16 00:50:09;;;;;;;82.07;30.40;;;1.80;99.90;;;;;;6181895;23;20434;-80
2022/01/16 00:52:34;;;;;;;80.38;30.20;;;1.80;99.90;;;;;;6182030;23;20063;-82
2022/01/16 00:55:03;;;;;;;81.82;29.85;;;1.80;99.90;;;;;;6156918;23;20016;-81
2022/01/16 00:57:30;;;;;;;81.32;29.48;;;1.80;99.90;;;;;;6182076;23;20020;-80
2022/01/16 00:59:56;;;;;;;82.15;30.23;;;1.80;99.90;;;;;;6182110;23;20104;-80
2022/01/16 01:02:23;;;;;;;93.65;33.70;;;1.70;99.90;;;;;;6156222;23;20031;-81
2022/01/16 01:04:49;;;;;;;87.07;31.98;;;1.70;99.90;;;;;;6157160;23;20017;-80
2022/01/16 01:07:15;;;;;;;97.47;35.13;;;1.70;99.90;;;;;;6157116;23;20167;-80
2022/01/16 01:09:41;;;;;;;102.55;34.60;;;1.70;99.90;;;;;;6156268;23;20020;-78
2022/01/16 01:12:09;;;;;;;101.80;35.13;;;1.80;99.90;;;;;;6156872;23;20013;-79
2022/01/16 01:14:41;;;;;;;98.70;36.10;;;1.70;99.90;;;;;;6182114;23;20009;-81
2022/01/16 01:17:09;;;;;;;106.20;37.17;;;1.80;99.90;;;;;;6181652;23;20009;-79
2022/01/16 01:19:35;;;;;;;106.55;36.08;;;1.80;99.90;;;;;;6182070;23;20101;-79
2022/01/16 01:22:04;;;;;;;107.78;36.35;;;1.70;99.90;;;;;;6181598;23;20021;-79
2022/01/16 01:24:31;;;;;;;95.03;34.85;;;1.80;99.90;;;;;;6157016;23;20020;-81
2022/01/16 01:27:07;;;;;;;106.85;35.83;;;1.80;99.90;;;;;;6182870;23;20021;-78
2022/01/16 01:29:34;;;;;;;97.10;36.88;;;1.80;99.90;;;;;;6182306;23;20027;-81
2022/01/16 01:32:01;;;;;;;92.10;36.67;;;1.80;99.90;;;;;;6157427;23;20088;-75
2022/01/16 01:34:26;;;;;;;88.28;36.95;;;1.80;99.90;;;;;;6156657;23;20044;-76
2022/01/16 01:36:52;;;;;;;86.13;35.13;;;1.80;99.90;;;;;;6181706;23;20020;-77
2022/01/16 01:39:22;;;;;;;90.15;35.60;;;1.80;99.90;;;;;;6156675;23;20005;-78
2022/01/16 01:41:52;;;;;;;84.38;35.08;;;1.80;99.90;;;;;;6181862;23;20095;-79
2022/01/16 01:52:30;;;;;;;103.45;38.42;;;1.90;99.90;;;;;;6181541;23;20017;-80
2022/01/16 01:54:56;;;;;;;96.03;35.58;;;2.20;99.90;;;;;;6156638;23;20095;-80
2022/01/16 01:57:22;;;;;;;98.20;37.72;;;2.10;99.90;;;;;;6157034;23;20013;-80
2022/01/16 01:59:48;;;;;;;98.00;37.30;;;1.90;99.90;;;;;;6156241;23;20044;-80
2022/01/16 02:02:14;;;;;;;101.90;38.30;;;2.00;99.90;;;;;;6181120;23;20760;-80
2022/01/16 02:04:39;;;;;;;91.45;37.90;;;2.20;99.90;;;;;;6157442;23;20333;-80
2022/01/16 02:07:05;;;;;;;94.05;37.10;;;2.00;99.90;;;;;;6156860;23;20020;-80
2022/01/16 02:09:31;;;;;;;107.65;38.47;;;2.00;99.90;;;;;;6156269;23;20035;-81
2022/01/16 02:11:57;;;;;;;100.80;38.60;;;2.00;99.90;;;;;;6181301;23;20017;-81
2022/01/16 02:33:23;;;;;;;105.95;37.95;;;2.00;99.90;;;;;;6181329;23;20040;-81
2022/01/16 02:35:55;;;;;;;119.25;39.88;;;2.00;99.90;;;;;;6181198;23;20017;-81
2022/01/16 02:38:21;;;;;;;110.30;37.83;;;2.00;99.90;;;;;;6181590;23;20013;-81
2022/01/16 02:40:49;;;;;;;115.07;38.67;;;2.00;99.90;;;;;;6180831;23;20072;-82
2022/01/16 02:43:17;;;;;;;114.03;37.88;;;2.00;99.90;;;;;;6180594;23;20020;-81
2022/01/16 02:45:58;;;;;;;138.32;41.17;;;2.00;99.90;;;;;;6180863;23;20009;-81
2022/01/16 02:48:24;;;;;;;115.82;38.40;;;2.00;99.90;;;;;;6182107;23;20013;-82
2022/01/16 02:50:50;;;;;;;118.25;38.50;;;2.00;99.90;;;;;;6180863;23;20093;-81
2022/01/16 02:53:16;;;;;;;127.00;39.30;;;2.40;99.90;;;;;;6180788;23;20120;-80
2022/01/16 02:55:43;;;;;;;125.25;39.80;;;2.00;99.90;;;;;;6179464;23;20016;-81
2022/01/16 02:58:09;;;;;;;119.38;40.40;;;2.00;99.90;;;;;;6180743;23;20032;-81
2022/01/16 03:00:36;;;;;;;125.88;38.78;;;2.80;99.90;;;;;;6156388;23;20068;-81
2022/01/16 03:03:02;;;;;;;112.28;35.70;;;2.00;99.90;;;;;;6180459;23;20117;-81
2022/01/16 03:05:28;;;;;;;109.03;37.45;;;1.90;99.90;;;;;;6155346;23;20403;-82
2022/01/16 03:07:53;;;;;;;114.25;37.17;;;2.00;99.90;;;;;;6131948;23;20034;-81
2022/01/16 03:12:51;;;;;;;118.18;36.88;;;2.00;99.90;;;;;;6180382;23;20076;-80
2022/01/16 03:15:18;;;;;;;125.18;38.47;;;2.00;99.90;;;;;;6179817;23;20016;-80
2022/01/16 03:23:15;;;;;;;128.50;38.15;;;2.00;99.90;;;;;;6180550;23;20017;-80
2022/01/16 03:25:42;;;;;;;117.03;37.15;;;2.10;99.90;;;;;;6154977;23;20091;-82
2022/01/16 03:28:07;;;;;;;116.70;37.00;;;2.10;99.90;;;;;;6155193;23;20306;-82
2022/01/16 03:30:33;;;;;;;127.45;38.95;;;2.10;99.90;;;;;;6181377;23;20016;-82
2022/01/16 03:32:59;;;;;;;114.57;37.58;;;2.10;99.90;;;;;;6180810;23;20033;-81
2022/01/16 03:35:26;;;;;;;106.10;36.17;;;2.10;99.90;;;;;;6180133;23;20415;-81
2022/01/16 03:37:51;;;;;;;118.45;38.97;;;2.10;99.90;;;;;;6180739;23;20025;-82
2022/01/16 03:40:21;;;;;;;122.00;38.80;;;2.10;99.90;;;;;;6180706;23;20013;-81
2022/01/16 03:42:49;;;;;;;125.63;38.67;;;2.10;99.90;;;;;;6156041;23;20485;-81
2022/01/16 03:45:16;;;;;;;120.00;39.13;;;2.10;99.90;;;;;;6155804;23;20053;-82
2022/01/16 03:47:41;;;;;;;119.13;39.47;;;2.10;99.90;;;;;;6154702;23;20013;-82
2022/01/16 03:50:09;;;;;;;114.15;38.25;;;2.20;99.90;;;;;;6182515;23;20009;-82
2022/01/16 03:52:35;;;;;;;131.15;39.30;;;2.10;99.90;;;;;;6182386;23;20040;-81
2022/01/16 03:55:02;;;;;;;122.88;41.08;;;2.10;99.90;;;;;;6179725;23;20104;-82
2022/01/16 03:57:28;;;;;;;135.30;41.97;;;2.50;99.90;;;;;;6180854;23;20013;-81
2022/01/16 03:59:54;;;;;;;134.13;38.88;;;2.20;99.90;;;;;;6155653;23;20413;-80
2022/01/16 04:02:19;;;;;;;139.52;41.10;;;3.00;99.90;;;;;;6180520;23;20055;-81
2022/01/16 04:04:45;;;;;;;124.75;38.75;;;2.20;99.90;;;;;;6180275;23;20426;-81
2022/01/16 04:07:16;;;;;;;148.77;41.10;;;2.40;99.90;;;;;;6180100;23;20012;-81
2022/01/16 04:09:42;;;;;;;139.38;40.95;;;2.20;99.90;;;;;;6154627;23;20013;-82
2022/01/16 04:12:09;;;;;;;156.70;41.65;;;2.30;99.90;;;;;;6155122;23;20032;-81
2022/01/16 04:17:22;;;;;;;152.20;41.13;;;2.30;99.90;;;;;;6180071;23;20023;-81
2022/01/16 04:19:49;;;;;;;169.27;42.45;;;2.30;99.90;;;;;;6155208;23;20036;-81
2022/01/16 04:22:16;;;;;;;149.75;42.50;;;2.30;99.90;;;;;;6155566;23;20100;-81
2022/01/16 04:24:42;;;;;;;168.68;42.25;;;2.30;99.90;;;;;;6180751;23;20096;-80
2022/01/16 04:27:10;;;;;;;144.73;41.45;;;2.30;99.90;;;;;;6155594;23;20056;-82
2022/01/16 04:29:37;;;;;;;157.70;44.08;;;2.30;99.90;;;;;;6155769;23;20009;-82
2022/01/16 04:32:03;;;;;;;150.45;41.75;;;2.70;99.90;;;;;;6155668;23;20021;-81
2022/01/16 04:34:29;;;;;;;171.07;43.67;;;2.40;99.90;;;;;;6181028;23;20013;-81
2022/01/16 04:36:55;;;;;;;161.43;44.55;;;2.40;99.90;;;;;;6156901;23;20409;-80
2022/01/16 04:39:21;;;;;;;161.40;42.13;;;2.80;99.90;;;;;;6155654;23;20020;-81
2022/01/16 04:44:32;;;;;;;147.15;40.22;;;2.40;99.90;;;;;;6180745;23;20126;-80
2022/01/16 04:46:58;;;;;;;171.88;43.22;;;2.40;99.90;;;;;;6180534;23;20017;-80
2022/01/16 04:49:24;;;;;;;163.73;43.33;;;2.50;99.90;;;;;;6155367;23;20009;-81
2022/01/16 04:51:50;;;;;;;172.65;44.75;;;2.50;99.90;;;;;;6155783;23;20509;-81
2022/01/16 04:54:16;;;;;;;182.68;46.15;;;2.60;99.90;;;;;;6156219;23;20013;-80
2022/01/16 04:56:42;;;;;;;190.40;45.67;;;2.50;99.90;;;;;;6157120;23;20097;-80
2022/01/16 04:59:08;;;;;;;172.93;44.42;;;2.60;99.90;;;;;;6156887;23;20078;-82
2022/01/16 05:01:33;;;;;;;194.35;45.95;;;2.60;99.90;;;;;;6181144;23;20039;-81
2022/01/16 05:03:59;;;;;;;198.25;45.88;;;2.60;99.90;;;;;;6154242;23;20083;-82
2022/01/16 05:06:25;;;;;;;187.50;46.33;;;2.60;99.90;;;;;;6156536;23;20071;-81
2022/01/16 05:08:51;;;;;;;171.10;43.72;;;2.90;99.90;;;;;;6155678;23;20381;-80
2022/01/16 05:11:22;;;;;;;190.68;45.85;;;2.60;99.90;;;;;;6156910;23;20421;-80
2022/01/16 05:18:58;;;;;;;197.88;46.85;;;2.70;99.90;;;;;;6180662;23;20032;-82
2022/01/16 05:21:25;;;;;;;188.45;46.28;;;2.70;99.90;;;;;;6180860;23;20025;-82
2022/01/16 05:23:50;;;;;;;165.43;44.90;;;2.70;99.90;;;;;;6154491;23;20069;-81
2022/01/16 05:26:19;;;;;;;176.02;45.63;;;2.70;99.90;;;;;;6182872;23;20054;-81
2022/01/16 05:28:45;;;;;;;189.52;45.88;;;3.50;99.90;;;;;;6157857;23;20079;-82
2022/01/16 05:31:11;;;;;;;194.05;46.80;;;2.80;99.90;;;;;;6157760;23;20013;-81
2022/01/16 05:33:36;;;;;;;207.13;49.08;;;2.80;99.90;;;;;;6157144;23;20124;-82
2022/01/16 05:36:03;;;;;;;208.18;47.83;;;2.80;99.90;;;;;;6181729;23;20460;-81
2022/01/16 05:38:28;;;;;;;207.77;47.60;;;2.90;99.90;;;;;;6157757;23;20039;-81
2022/01/16 05:40:54;;;;;;;196.50;46.53;;;2.90;99.90;;;;;;6181592;23;20038;-81
2022/01/16 05:43:20;;;;;;;190.15;47.88;;;2.90;99.90;;;;;;6155776;23;20437;-82
2022/01/16 05:45:45;;;;;;;208.98;44.75;;;2.80;99.90;;;;;;6156593;23;20433;-81
2022/01/16 05:48:11;;;;;;;219.65;48.15;;;2.90;99.90;;;;;;6181345;23;20406;-82
2022/01/16 05:50:37;;;;;;;209.60;47.95;;;3.00;99.90;;;;;;6157554;23;20445;-81
2022/01/16 05:53:03;;;;;;;202.18;46.10;;;2.90;99.90;;;;;;6182058;23;20040;-80
2022/01/16 05:55:36;;;;;;;207.95;47.70;;;2.90;99.90;;;;;;6181406;23;20025;-80
2022/01/16 05:58:02;;;;;;;230.13;47.65;;;2.90;99.90;;;;;;6157778;23;20071;-80
2022/01/16 06:00:28;;;;;;;222.57;47.60;;;2.90;99.90;;;;;;6157590;23;20099;-82
2022/01/16 06:02:53;;;;;;;187.15;47.22;;;3.00;99.90;;;;;;6157361;23;20441;-81
2022/01/16 06:05:19;;;;;;;227.57;49.03;;;3.00;99.90;;;;;;6181566;23;20009;-80
2022/01/16 06:07:50;;;;;;;223.73;48.03;;;3.00;99.90;;;;;;6158009;23;20009;-81
2022/01/16 06:10:16;;;;;;;211.82;48.15;;;3.00;99.90;;;;;;6182305;23;20381;-80
2022/01/16 06:12:42;;;;;;;206.18;44.72;;;3.70;99.90;;;;;;6157909;23;20013;-80
2022/01/16 06:15:08;;;;;;;212.32;48.03;;;3.00;99.90;;;;;;6182721;23;20358;-82
2022/01/16 06:17:34;;;;;;;212.73;47.30;;;3.00;99.90;;;;;;6157503;23;20047;-81
2022/01/16 06:20:00;;;;;;;204.15;48.13;;;3.10;99.90;;;;;;6157530;23;20088;-81
2022/01/16 06:22:25;;;;;;;219.13;46.50;;;3.10;99.90;;;;;;6181972;23;20095;-81
2022/01/16 06:24:51;;;;;;;210.20;48.35;;;3.10;99.90;;;;;;6155781;23;20009;-82
2022/01/16 06:27:17;;;;;;;213.65;48.03;;;3.10;99.90;;;;;;6181951;23;20430;-81
2022/01/16 06:29:43;;;;;;;209.73;48.85;;;3.20;99.90;;;;;;6132398;23;20112;-80
2022/01/16 06:32:09;;;;;;;197.63;47.35;;;3.10;99.90;;;;;;6156698;23;20017;-81
2022/01/16 06:34:34;;;;;;;210.13;48.50;;;3.20;99.90;;;;;;6156940;23;20009;-81
2022/01/16 06:37:00;;;;;;;205.00;50.47;;;3.20;99.90;;;;;;6182546;23;20409;-80
2022/01/16 06:39:29;;;;;;;194.18;47.97;;;3.30;99.90;;;;;;6181801;23;20342;-81
2022/01/16 06:41:57;;;;;;;200.77;49.10;;;3.20;99.90;;;;;;6158312;23;20017;-81
2022/01/16 06:44:23;;;;;;;206.38;49.90;;;3.30;99.90;;;;;;6156783;23;20017;-80
2022/01/16 06:46:49;;;;;;;186.65;47.70;;;3.40;99.90;;;;;;6181380;23;20163;-83
2022/01/16 06:49:15;;;;;;;206.73;51.50;;;4.30;99.90;;;;;;6182369;23;20009;-82
2022/01/16 06:51:40;;;;;;;153.27;45.15;;;3.40;99.90;;;;;;6181865;23;20408;-79
2022/01/16 06:54:06;;;;;;;213.80;52.55;;;3.50;99.90;;;;;;6180088;23;20013;-81
2022/01/16 06:56:33;;;;;;;209.55;51.15;;;3.40;99.90;;;;;;6156331;23;20013;-81
2022/01/16 06:58:59;;;;;;;202.20;51.35;;;3.50;99.90;;;;;;6180617;23;20035;-82
2022/01/16 07:01:26;;;;;;;210.02;52.80;;;3.50;99.90;;;;;;6156220;23;20418;-81
2022/01/16 07:03:54;;;;;;;200.05;49.72;;;3.60;99.90;;;;;;6156589;23;20013;-79
2022/01/16 07:06:20;;;;;;;186.27;50.35;;;3.60;99.90;;;;;;6181686;23;20081;-81
2022/01/16 07:08:46;;;;;;;201.70;50.67;;;3.60;99.90;;;;;;6180939;23;20076;-80
2022/01/16 07:11:12;;;;;;;195.13;52.40;;;3.60;99.90;;;;;;6156500;23;20016;-80
2022/01/16 07:13:38;;;;;;;204.18;52.90;;;3.60;99.90;;;;;;6155500;23;20025;-81
2022/01/16 07:16:22;;;;;;;187.05;51.70;;;3.70;99.90;;;;;;6156460;23;20060;-81
2022/01/16 07:18:48;;;;;;;199.90;50.05;;;3.70;99.90;;;;;;6156161;23;20035;-83
2022/01/16 07:21:14;;;;;;;194.68;52.75;;;4.10;99.90;;;;;;6155508;23;20028;-83
2022/01/16 07:23:42;;;;;;;193.10;51.70;;;3.70;99.90;;;;;;6182175;23;20055;-80
2022/01/16 07:26:07;;;;;;;183.90;52.80;;;3.70;99.90;;;;;;6181315;23;20330;-81
2022/01/16 07:28:33;;;;;;;194.88;52.90;;;3.80;99.90;;;;;;6183563;23;20024;-81
2022/01/16 07:30:59;;;;;;;183.20;53.08;;;4.40;99.90;;;;;;6181425;23;20445;-80
2022/01/16 07:33:25;;;;;;;188.88;52.35;;;3.80;99.90;;;;;;6155942;23;20019;-82
2022/01/16 07:35:50;;;;;;;184.73;52.80;;;4.00;99.90;;;;;;6183067;23;20013;-81
2022/01/16 07:38:16;;;;;;;177.13;51.17;;;3.80;99.90;;;;;;6156315;23;20092;-82
2022/01/16 07:40:42;;;;;;;184.18;53.47;;;3.90;99.90;;;;;;6154953;23;20087;-82
2022/01/16 07:43:08;;;;;;;184.93;53.38;;;3.90;99.90;;;;;;6156459;23;20040;-81
2022/01/16 07:45:34;;;;;;;180.27;53.53;;;3.90;99.90;;;;;;6155969;23;20013;-83
2022/01/16 07:48:00;;;;;;;169.50;52.90;;;4.00;99.90;;;;;;6180296;23;20107;-81
2022/01/16 07:50:26;;;;;;;150.77;50.00;;;4.00;99.90;;;;;;6180941;23;20048;-82
2022/01/16 07:52:52;;;;;;;164.75;50.13;;;4.00;99.90;;;;;;6155941;23;20460;-81
2022/01/16 07:55:21;;;;;;;164.18;50.90;;;4.00;99.90;;;;;;6182024;23;20088;-84
2022/01/16 07:57:47;;;;;;;158.13;50.60;;;4.60;99.90;;;;;;6181129;23;20089;-81
2022/01/16 08:00:13;;;;;;;146.15;50.35;;;4.50;99.90;;;;;;6181075;23;20044;-80
2022/01/16 08:02:39;;;;;;;154.52;49.15;;;4.10;99.90;;;;;;6155276;23;20020;-81
2022/01/16 08:05:15;;;;;;;154.23;51.22;;;4.10;99.90;;;;;;6181708;23;20009;-82
2022/01/16 08:07:44;;;;;;;153.98;50.65;;;4.10;99.90;;;;;;6155062;23;20017;-80
2022/01/16 08:10:10;;;;;;;151.50;51.60;;;4.10;99.90;;;;;;6179613;23;20116;-80
2022/01/16 08:12:36;;;;;;;157.30;50.28;;;4.20;99.90;;;;;;6155321;23;20916;-80
2022/01/16 08:15:04;;;;;;;146.40;50.03;;;4.20;99.90;;;;;;6155125;23;20048;-80
2022/01/16 08:17:30;;;;;;;145.23;49.72;;;4.30;99.90;;;;;;6154550;23;20021;-81
2022/01/16 08:19:56;;;;;;;147.02;49.35;;;4.30;99.90;;;;;;6130593;23;20083;-83
2022/01/16 08:22:28;;;;;;;139.95;46.72;;;4.30;99.90;;;;;;6155768;23;20115;-83
2022/01/16 08:25:07;;;;;;;;;;;;;;;;;;;;;
2022/01/16 08:27:43;;;;;;;125.53;47.28;;;4.30;99.90;;;;;;6182462;23;20044;-81
2022/01/16 08:30:10;;;;;;;115.63;44.85;;;4.40;99.90;;;;;;6156350;23;20040;-81
2022/01/16 08:32:39;;;;;;;113.90;43.97;;;4.40;99.90;;;;;;6154653;23;20048;-81
2022/01/16 08:35:29;;;;;;;110.78;44.42;;;5.20;99.90;;;;;;6155609;23;20036;-81
2022/01/16 08:37:55;;;;;;;100.07;40.80;;;4.50;99.90;;;;;;6156026;23;20067;-81
2022/01/16 08:40:46;;;;;;;117.82;44.20;;;4.60;99.90;;;;;;6181521;23;20045;-81
2022/01/16 08:43:43;;;;;;;106.90;43.00;;;5.20;99.90;;;;;;6155679;23;20422;-81
2022/01/16 08:46:22;;;;;;;96.40;41.22;;;4.70;99.90;;;;;;6153772;23;20017;-81
2022/01/16 08:48:54;;;;;;;105.93;41.17;;;4.10;99.90;;;;;;6179475;23;20013;-81
2022/01/16 08:51:21;;;;;;;99.07;41.17;;;5.10;99.90;;;;;;6155955;23;20048;-79
2022/01/16 08:53:47;;;;;;;89.40;39.17;;;5.50;99.90;;;;;;6180176;23;20088;-77
2022/01/16 08:56:31;;;;;;;89.65;39.50;;;5.50;99.90;;;;;;6154603;23;20017;-78
2022/01/16 08:59:15;;;;;;;87.32;37.55;;;4.50;99.90;;;;;;6178369;23;20406;-78
2022/01/16 09:01:50;;;;;;;84.00;38.28;;;4.90;99.90;;;;;;6158201;23;20013;-77
2022/01/16 09:04:18;;;;;;;84.88;38.33;;;4.90;99.90;;;;;;6179809;23;20013;-80
2022/01/16 09:06:59;;;;;;;79.53;33.58;;;5.80;99.90;;;;;;6155666;23;20048;-76
2022/01/16 09:09:33;;;;;;;76.43;36.95;;;5.10;99.90;;;;;;6156200;23;20020;-75
2022/01/16 09:12:04;;;;;;;73.70;36.33;;;5.50;99.90;;;;;;6155126;23;20020;-80
2022/01/16 09:14:50;;;;;;;69.82;35.38;;;5.20;99.90;;;;;;6183155;23;20049;-75
2022/01/16 09:17:16;;;;;;;71.32;34.85;;;5.90;99.90;;;;;;6180566;23;20024;-78
2022/01/16 09:19:42;;;;;;;72.25;34.20;;;5.80;99.90;;;;;;6176961;23;20013;-77
2022/01/16 09:22:08;;;;;;;72.22;32.75;;;5.40;99.90;;;;;;6181041;23;20017;-82
2022/01/16 09:24:34;;;;;;;65.47;34.42;;;5.80;99.90;;;;;;6154163;23;20082;-83
2022/01/16 09:27:01;;;;;;;69.05;34.65;;;5.50;99.90;;;;;;6179311;23;20127;-77
2022/01/16 09:29:32;;;;;;;64.25;32.30;;;5.60;99.90;;;;;;6156047;23;20068;-78
2022/01/16 09:31:57;;;;;;;70.20;33.20;;;5.50;99.90;;;;;;6156763;23;20028;-77
2022/01/16 09:34:23;;;;;;;63.22;32.42;;;5.50;99.90;;;;;;6180852;23;20017;-78
2022/01/16 09:36:49;;;;;;;61.50;29.45;;;5.60;99.90;;;;;;6156888;23;20021;-80
2022/01/16 09:39:15;;;;;;;65.82;30.75;;;5.60;99.90;;;;;;6181217;23;20036;-75
2022/01/16 09:41:42;;;;;;;61.67;31.98;;;5.70;99.90;;;;;;6184395;23;20017;-76
2022/01/16 09:44:08;;;;;;;57.47;29.15;;;5.60;99.90;;;;;;6182771;23;20012;-75
2022/01/16 09:46:35;;;;;;;65.65;31.02;;;5.60;99.90;;;;;;6157640;23;20449;-76
2022/01/16 09:49:01;;;;;;;64.18;31.70;;;5.60;99.90;;;;;;6156796;23;20013;-76
2022/01/16 09:51:28;;;;;;;62.72;32.88;;;5.70;99.90;;;;;;6158460;23;20322;-75
2022/01/16 09:53:54;;;;;;;61.00;29.23;;;5.70;99.90;;;;;;6157487;23;20067;-76
2022/01/16 09:56:20;;;;;;;58.95;29.38;;;5.70;99.90;;;;;;6182864;23;20124;-78
2022/01/16 09:58:46;;;;;;;61.40;28.98;;;5.70;99.90;;;;;;6182046;23;20127;-77
2022/01/16 10:01:12;;;;;;;58.97;30.92;;;5.90;99.90;;;;;;6184258;23;20017;-78
2022/01/16 10:03:44;;;;;;;64.60;29.48;;;5.90;99.90;;;;;;6156160;23;20089;-77
2022/01/16 10:06:20;;;;;;;56.38;29.48;;;6.00;99.90;;;;;;6157663;23;20016;-78
2022/01/16 10:08:48;;;;;;;59.70;29.30;;;6.20;99.90;;;;;;6181161;23;20009;-77
2022/01/16 10:11:23;;;;;;;57.88;28.92;;;6.00;99.90;;;;;;6181412;23;20013;-77
2022/01/16 10:14:21;;;;;;;63.50;29.42;;;6.00;99.90;;;;;;6180769;23;20017;-79
2022/01/16 10:16:47;;;;;;;59.92;29.50;;;6.10;99.90;;;;;;6155466;23;20017;-79
2022/01/16 10:19:20;;;;;;;54.17;27.42;;;6.10;99.90;;;;;;6180729;23;20095;-81
2022/01/16 10:22:13;;;;;;;51.45;26.95;;;6.10;99.90;;;;;;6158204;23;20028;-82
2022/01/16 10:24:40;;;;;;;49.75;24.33;;;6.20;99.90;;;;;;6175999;23;20075;-81
2022/01/16 10:27:17;;;;;;;60.63;27.98;;;6.30;99.90;;;;;;6181389;23;20138;-80
2022/01/16 10:29:43;;;;;;;50.17;25.08;;;6.30;99.90;;;;;;6157151;23;20025;-79
2022/01/16 10:32:11;;;;;;;54.58;26.13;;;7.00;99.90;;;;;;6181211;23;20110;-79
2022/01/16 10:34:37;;;;;;;52.55;23.80;;;6.30;99.90;;;;;;6157268;23;20607;-79
2022/01/16 10:37:22;;;;;;;42.33;23.45;;;6.40;99.90;;;;;;6181442;23;20031;-79
2022/01/16 10:40:19;;;;;;;56.22;25.13;;;6.40;99.90;;;;;;6156655;23;20075;-78
2022/01/16 10:42:55;;;;;;;53.67;22.30;;;6.40;99.90;;;;;;6182063;23;20017;-79
2022/01/16 10:45:27;;;;;;;52.08;24.40;;;6.50;99.90;;;;;;6181751;23;20013;-78
2022/01/16 10:47:57;;;;;;;51.20;25.85;;;6.50;99.90;;;;;;6182117;23;20096;-78
2022/01/16 10:50:25;;;;;;;54.25;24.63;;;6.50;99.90;;;;;;6182159;23;20013;-78
2022/01/16 10:52:58;;;;;;;50.42;21.92;;;6.50;99.90;;;;;;6182127;23;20013;-79
2022/01/16 10:55:40;;;;;;;52.50;23.45;;;6.50;99.90;;;;;;6180803;23;20089;-79
2022/01/16 10:58:51;;;;;;;44.75;21.38;;;6.60;99.90;;;;;;6183768;23;20008;-86
2022/01/16 11:01:18;;;;;;;54.80;23.20;;;6.50;99.90;;;;;;6156120;23;20044;-81
2022/01/16 11:03:49;;;;;;;48.83;22.35;;;6.60;99.90;;;;;;6183111;23;20068;-80
2022/01/16 11:06:16;;;;;;;56.38;22.40;;;6.70;99.90;;;;;;6183526;23;20008;-81
2022/01/16 11:08:53;;;;;;;45.17;21.52;;;6.80;99.90;;;;;;6182222;23;20013;-80
2022/01/16 11:11:22;;;;;;;43.97;21.15;;;6.70;99.90;;;;;;6182049;23;20013;-80
2022/01/16 11:13:50;;;;;;;44.72;19.30;;;6.80;99.90;;;;;;6183735;23;20444;-81
2022/01/16 11:16:16;;;;;;;54.25;19.30;;;7.40;99.90;;;;;;6183822;23;20009;-81
2022/01/16 11:18:48;;;;;;;48.60;20.45;;;7.40;99.90;;;;;;6183012;23;20017;-80
2022/01/16 11:21:19;;;;;;;47.90;19.63;;;6.70;99.90;;;;;;6183337;23;20160;-80
2022/01/16 11:26:35;;;;;;;40.60;17.15;;;6.60;99.90;;;;;;6091609;23;20462;-82
2022/01/16 11:29:01;;;;;;;47.30;18.88;;;7.00;99.90;;;;;;6091705;23;20018;-81
2022/01/16 11:31:29;;;;;;;39.22;18.67;;;6.70;99.90;;;;;;6068469;23;20022;-81
2022/01/16 11:33:54;;;;;;;47.72;18.40;;;6.70;99.90;;;;;;6067467;23;20059;-81
2022/01/16 11:36:23;;;;;;;39.88;17.88;;;6.70;99.90;;;;;;6044153;23;20022;-81
2022/01/16 11:38:53;;;;;;;44.13;16.35;;;6.80;99.90;;;;;;6066750;23;20025;-82
2022/01/16 11:41:30;;;;;;;35.25;16.00;;;6.80;99.90;;;;;;6067053;23;20022;-81
2022/01/16 11:43:56;;;;;;;34.50;16.40;;;6.80;99.90;;;;;;6044029;23;20025;-80
2022/01/16 11:46:24;;;;;;;39.78;16.05;;;6.70;99.90;;;;;;6068051;23;20145;-81
2022/01/16 11:48:58;;;;;;;35.42;15.02;;;6.80;99.90;;;;;;6067134;23;20026;-81
2022/01/16 11:51:36;;;;;;;31.50;14.70;;;6.80;99.90;;;;;;6067964;23;20101;-81
2022/01/16 11:54:19;;;;;;;34.65;14.18;;;6.80;99.90;;;;;;6066674;23;20190;-81
2022/01/16 11:56:45;;;;;;;36.75;13.93;;;6.80;99.90;;;;;;6067479;23;20069;-81
2022/01/16 11:59:18;;;;;;;43.30;15.00;;;6.90;99.90;;;;;;6066942;23;20094;-81
2022/01/16 12:01:49;;;;;;;32.90;11.85;;;6.90;99.90;;;;;;6066864;23;20025;-81
2022/01/16 12:04:53;;;;;;;29.30;10.82;;;7.00;99.90;;;;;;6129020;23;20013;-80
2022/01/16 12:07:20;;;;;;;30.20;12.20;;;7.00;99.90;;;;;;6120916;23;20141;-82
2022/01/16 12:09:50;;;;;;;27.20;10.98;;;7.10;99.90;;;;;;6120880;23;20137;-81
2022/01/16 12:12:37;;;;;;;34.50;11.57;;;7.10;99.90;;;;;;6096678;23;20022;-81
2022/01/16 12:15:16;;;;;;;30.45;10.95;;;7.00;99.90;;;;;;6043085;23;20510;-80
2022/01/16 12:17:44;;;;;;;23.25;8.40;;;7.00;99.90;;;;;;6066340;23;20093;-81
2022/01/16 12:20:18;;;;;;;33.10;10.18;;;7.10;99.90;;;;;;6067793;23;20472;-81
2022/01/16 12:23:13;;;;;;;26.73;8.95;;;7.10;99.90;;;;;;6067740;23;20064;-80
2022/01/16 12:26:03;;;;;;;23.83;8.85;;;7.10;99.90;;;;;;6010160;23;20148;-77
2022/01/16 12:28:28;;;;;;;26.63;9.85;;;7.10;99.90;;;;;;5983157;23;20051;-80
2022/01/16 12:30:59;;;;;;;26.05;8.73;;;7.50;99.90;;;;;;6005289;23;20019;-79
2022/01/16 12:33:51;;;;;;;22.17;8.02;;;7.10;99.90;;;;;;5958050;23;20373;-78
2022/01/16 12:36:18;;;;;;;24.00;8.70;;;7.10;99.90;;;;;;5959849;23;20012;-80
2022/01/16 12:38:48;;;;;;;20.05;7.90;;;7.10;99.90;;;;;;5960719;23;20012;-79
2022/01/16 12:41:19;;;;;;;23.08;8.23;;;7.10;99.90;;;;;;6007001;23;20020;-79
2022/01/16 12:44:13;;;;;;;30.92;9.35;;;7.10;99.90;;;;;;5982843;23;20031;-78
2022/01/16 12:46:48;;;;;;;21.60;8.07;;;7.10;99.90;;;;;;5958827;23;20012;-78
2022/01/16 12:49:16;;;;;;;25.25;8.43;;;7.00;99.90;;;;;;5959045;23;20059;-78
2022/01/16 12:51:46;;;;;;;24.10;7.90;;;7.10;99.90;;;;;;5984072;23;20031;-79
2022/01/16 12:54:17;;;;;;;22.05;7.93;;;7.30;99.90;;;;;;5959833;23;20172;-78
2022/01/16 12:56:43;;;;;;;19.95;7.93;;;7.10;99.90;;;;;;5983952;23;20027;-79
2022/01/16 12:59:13;;;;;;;22.02;7.65;;;7.10;99.90;;;;;;5983413;23;20031;-79
2022/01/16 13:01:51;;;;;;;20.90;8.40;;;7.10;99.90;;;;;;6036500;23;20430;-81
2022/01/16 13:04:26;;;;;;;19.65;7.72;;;7.10;99.90;;;;;;6129198;23;20307;-80
2022/01/16 13:06:57;;;;;;;26.40;8.27;;;7.60;99.90;;;;;;6153240;23;20297;-80
2022/01/16 13:09:22;;;;;;;25.27;7.68;;;7.20;99.90;;;;;;6127927;23;20039;-79
2022/01/16 13:11:55;;;;;;;18.92;8.00;;;7.30;99.90;;;;;;6151578;23;20089;-79
2022/01/16 13:14:29;;;;;;;25.35;8.65;;;7.00;99.90;;;;;;6151494;23;20028;-79
2022/01/16 13:17:08;;;;;;;17.23;8.15;;;7.10;99.90;;;;;;6154041;23;20013;-79
2022/01/16 13:19:42;;;;;;;23.98;7.72;;;7.00;99.90;;;;;;6151771;23;20024;-80
2022/01/16 13:22:13;;;;;;;23.73;8.38;;;7.00;99.90;;;;;;6152478;23;20432;-79
2022/01/16 13:24:49;;;;;;;26.10;8.15;;;7.00;99.90;;;;;;6126945;23;20020;-80
2022/01/16 13:27:17;;;;;;;25.77;7.32;;;7.00;99.90;;;;;;6152169;23;20013;-79
2022/01/16 13:29:46;;;;;;;23.95;8.10;;;7.00;99.90;;;;;;6152435;23;20010;-78
2022/01/16 13:32:18;;;;;;;23.77;8.07;;;7.10;99.90;;;;;;6152206;23;20027;-79
2022/01/16 13:34:50;;;;;;;19.83;6.97;;;7.00;99.90;;;;;;6153386;23;20017;-80